sensor_id;sensor_type;location;lat;lon;timestamp;P1;durP1;ratioP1;P2;durP2;ratioP2
49978;SDS011;35869;50.990;6.962;2023-01-25T00:03:28;15.70;;;10.57;;
49978;SDS011;35869;50.990;6.962;2023-01-25T00:08:29;13.30;;;9.53;;
49978;SDS011;35869;50.990;6.962;2023-01-25T00:13:29;13.50;;;10.93;;
49978;SDS011;35869;50.990;6.962;2023-01-25T00:18:30;13.77;;;9.93;;
49978;SDS011;35869;50.990;6.962;2023-01-25T00:23:32;15.47;;;10.77;;
49978;SDS011;35869;50.990;6.962;2023-01-25T00:28:33;15.63;;;10.27;;
49978;SDS011;35869;50.990;6.962;2023-01-25T00:33:38;14.13;;;10.57;;
49978;SDS011;35869;50.990;6.962;2023-01-25T00:38:42;14.90;;;10.27;;
49978;SDS011;35869;50.990;6.962;2023-01-25T00:43:42;14.30;;;9.60;;
49978;SDS011;35869;50.990;6.962;2023-01-25T00:48:43;17.85;;;11.00;;
49978;SDS011;35869;50.990;6.962;2023-01-25T00:53:43;17.20;;;10.67;;
49978;SDS011;35869;50.990;6.962;2023-01-25T00:58:43;14.35;;;9.98;;
49978;SDS011;35869;50.990;6.962;2023-01-25T01:03:44;14.90;;;10.68;;
49978;SDS011;35869;50.990;6.962;2023-01-25T01:08:44;15.80;;;10.90;;
49978;SDS011;35869;50.990;6.962;2023-01-25T01:13:44;16.50;;;11.77;;
49978;SDS011;35869;50.990;6.962;2023-01-25T01:18:44;15.73;;;10.98;;
49978;SDS011;35869;50.990;6.962;2023-01-25T01:23:44;15.27;;;11.10;;
49978;SDS011;35869;50.990;6.962;2023-01-25T01:28:45;17.20;;;11.80;;
49978;SDS011;35869;50.990;6.962;2023-01-25T01:33:49;16.53;;;11.20;;
49978;SDS011;35869;50.990;6.962;2023-01-25T01:38:54;16.55;;;12.10;;
49978;SDS011;35869;50.990;6.962;2023-01-25T01:43:54;16.38;;;11.60;;
49978;SDS011;35869;50.990;6.962;2023-01-25T01:48:56;14.75;;;10.30;;
49978;SDS011;35869;50.990;6.962;2023-01-25T01:54:01;17.85;;;11.82;;
49978;SDS011;35869;50.990;6.962;2023-01-25T01:59:07;15.85;;;11.00;;
49978;SDS011;35869;50.990;6.962;2023-01-25T02:04:08;16.77;;;11.02;;
49978;SDS011;35869;50.990;6.962;2023-01-25T02:09:10;16.95;;;10.90;;
49978;SDS011;35869;50.990;6.962;2023-01-25T02:14:13;13.93;;;10.75;;
49978;SDS011;35869;50.990;6.962;2023-01-25T02:19:31;16.85;;;10.85;;
49978;SDS011;35869;50.990;6.962;2023-01-25T02:24:34;18.23;;;11.80;;
49978;SDS011;35869;50.990;6.962;2023-01-25T02:29:38;17.52;;;12.18;;
49978;SDS011;35869;50.990;6.962;2023-01-25T02:34:40;17.85;;;11.80;;
49978;SDS011;35869;50.990;6.962;2023-01-25T02:39:40;16.08;;;11.27;;
49978;SDS011;35869;50.990;6.962;2023-01-25T02:44:41;14.73;;;10.80;;
49978;SDS011;35869;50.990;6.962;2023-01-25T02:49:41;20.55;;;13.00;;
49978;SDS011;35869;50.990;6.962;2023-01-25T02:54:41;18.63;;;13.30;;
49978;SDS011;35869;50.990;6.962;2023-01-25T02:59:42;14.98;;;11.25;;
49978;SDS011;35869;50.990;6.962;2023-01-25T03:04:42;18.90;;;11.93;;
49978;SDS011;35869;50.990;6.962;2023-01-25T03:09:42;16.05;;;10.68;;
49978;SDS011;35869;50.990;6.962;2023-01-25T03:14:42;20.88;;;10.68;;
49978;SDS011;35869;50.990;6.962;2023-01-25T03:19:43;18.15;;;12.02;;
49978;SDS011;35869;50.990;6.962;2023-01-25T03:24:43;17.80;;;11.77;;
49978;SDS011;35869;50.990;6.962;2023-01-25T03:29:43;21.45;;;13.35;;
49978;SDS011;35869;50.990;6.962;2023-01-25T03:34:44;18.42;;;11.65;;
49978;SDS011;35869;50.990;6.962;2023-01-25T03:39:44;14.80;;;11.02;;
49978;SDS011;35869;50.990;6.962;2023-01-25T03:44:44;19.10;;;13.07;;
49978;SDS011;35869;50.990;6.962;2023-01-25T03:49:44;17.23;;;10.82;;
49978;SDS011;35869;50.990;6.962;2023-01-25T03:54:45;15.60;;;11.15;;
49978;SDS011;35869;50.990;6.962;2023-01-25T03:59:45;18.73;;;12.13;;
49978;SDS011;35869;50.990;6.962;2023-01-25T04:04:45;19.45;;;12.65;;
49978;SDS011;35869;50.990;6.962;2023-01-25T04:09:45;17.83;;;11.45;;
49978;SDS011;35869;50.990;6.962;2023-01-25T04:14:45;16.67;;;10.98;;
49978;SDS011;35869;50.990;6.962;2023-01-25T04:19:46;19.63;;;11.68;;
49978;SDS011;35869;50.990;6.962;2023-01-25T04:24:46;16.25;;;11.40;;
49978;SDS011;35869;50.990;6.962;2023-01-25T04:29:46;20.13;;;13.05;;
49978;SDS011;35869;50.990;6.962;2023-01-25T04:34:46;17.17;;;12.05;;
49978;SDS011;35869;50.990;6.962;2023-01-25T04:39:46;16.85;;;11.63;;
49978;SDS011;35869;50.990;6.962;2023-01-25T04:44:47;17.70;;;11.73;;
49978;SDS011;35869;50.990;6.962;2023-01-25T04:49:47;16.85;;;12.05;;
49978;SDS011;35869;50.990;6.962;2023-01-25T04:54:47;20.70;;;13.32;;
49978;SDS011;35869;50.990;6.962;2023-01-25T04:59:47;20.60;;;11.88;;
49978;SDS011;35869;50.990;6.962;2023-01-25T05:04:47;18.75;;;12.35;;
49978;SDS011;35869;50.990;6.962;2023-01-25T05:09:48;18.33;;;11.40;;
49978;SDS011;35869;50.990;6.962;2023-01-25T05:14:48;18.95;;;13.13;;
49978;SDS011;35869;50.990;6.962;2023-01-25T05:19:48;21.30;;;13.18;;
49978;SDS011;35869;50.990;6.962;2023-01-25T05:24:48;18.02;;;12.63;;
49978;SDS011;35869;50.990;6.962;2023-01-25T05:29:49;19.67;;;13.40;;
49978;SDS011;35869;50.990;6.962;2023-01-25T05:34:49;22.23;;;13.25;;
49978;SDS011;35869;50.990;6.962;2023-01-25T05:39:50;23.88;;;14.15;;
49978;SDS011;35869;50.990;6.962;2023-01-25T05:44:50;21.88;;;14.52;;
49978;SDS011;35869;50.990;6.962;2023-01-25T05:49:50;18.58;;;11.88;;
49978;SDS011;35869;50.990;6.962;2023-01-25T05:54:50;17.52;;;11.77;;
49978;SDS011;35869;50.990;6.962;2023-01-25T05:59:50;22.15;;;13.70;;
49978;SDS011;35869;50.990;6.962;2023-01-25T06:04:51;20.50;;;13.20;;
49978;SDS011;35869;50.990;6.962;2023-01-25T06:09:51;19.73;;;13.05;;
49978;SDS011;35869;50.990;6.962;2023-01-25T06:14:51;20.33;;;13.40;;
49978;SDS011;35869;50.990;6.962;2023-01-25T06:19:51;22.98;;;12.85;;
49978;SDS011;35869;50.990;6.962;2023-01-25T06:24:51;18.40;;;13.40;;
49978;SDS011;35869;50.990;6.962;2023-01-25T06:29:52;19.58;;;12.73;;
49978;SDS011;35869;50.990;6.962;2023-01-25T06:34:52;20.20;;;12.35;;
49978;SDS011;35869;50.990;6.962;2023-01-25T06:39:52;21.52;;;13.23;;
49978;SDS011;35869;50.990;6.962;2023-01-25T06:44:52;20.50;;;12.88;;
49978;SDS011;35869;50.990;6.962;2023-01-25T06:49:52;22.30;;;13.20;;
49978;SDS011;35869;50.990;6.962;2023-01-25T06:54:53;18.90;;;13.48;;
49978;SDS011;35869;50.990;6.962;2023-01-25T06:59:53;21.27;;;14.05;;
49978;SDS011;35869;50.990;6.962;2023-01-25T07:04:53;22.00;;;14.35;;
49978;SDS011;35869;50.990;6.962;2023-01-25T07:09:53;22.73;;;13.95;;
49978;SDS011;35869;50.990;6.962;2023-01-25T07:14:53;22.25;;;14.32;;
49978;SDS011;35869;50.990;6.962;2023-01-25T07:19:54;20.45;;;13.23;;
49978;SDS011;35869;50.990;6.962;2023-01-25T07:24:54;24.95;;;15.30;;
49978;SDS011;35869;50.990;6.962;2023-01-25T07:29:54;25.00;;;15.60;;
49978;SDS011;35869;50.990;6.962;2023-01-25T07:34:54;20.42;;;13.55;;
49978;SDS011;35869;50.990;6.962;2023-01-25T07:39:54;21.10;;;13.93;;
49978;SDS011;35869;50.990;6.962;2023-01-25T07:44:55;20.67;;;14.32;;
49978;SDS011;35869;50.990;6.962;2023-01-25T07:49:55;21.40;;;14.20;;
49978;SDS011;35869;50.990;6.962;2023-01-25T07:54:55;21.05;;;13.90;;
49978;SDS011;35869;50.990;6.962;2023-01-25T07:59:55;20.02;;;13.05;;
49978;SDS011;35869;50.990;6.962;2023-01-25T08:04:55;21.40;;;14.67;;
49978;SDS011;35869;50.990;6.962;2023-01-25T08:09:56;27.40;;;15.50;;
49978;SDS011;35869;50.990;6.962;2023-01-25T08:14:56;22.80;;;14.05;;
49978;SDS011;35869;50.990;6.962;2023-01-25T08:24:58;26.52;;;15.25;;
49978;SDS011;35869;50.990;6.962;2023-01-25T08:29:58;23.48;;;15.18;;
49978;SDS011;35869;50.990;6.962;2023-01-25T08:34:58;27.00;;;15.50;;
49978;SDS011;35869;50.990;6.962;2023-01-25T08:39:59;24.45;;;15.95;;
49978;SDS011;35869;50.990;6.962;2023-01-25T08:44:59;25.67;;;17.03;;
49978;SDS011;35869;50.990;6.962;2023-01-25T08:49:59;22.70;;;15.80;;
49978;SDS011;35869;50.990;6.962;2023-01-25T08:54:59;25.42;;;16.00;;
49978;SDS011;35869;50.990;6.962;2023-01-25T09:00:00;26.80;;;17.37;;
49978;SDS011;35869;50.990;6.962;2023-01-25T09:05:00;27.03;;;16.67;;
49978;SDS011;35869;50.990;6.962;2023-01-25T09:10:00;25.03;;;16.50;;
49978;SDS011;35869;50.990;6.962;2023-01-25T09:15:01;27.38;;;16.88;;
49978;SDS011;35869;50.990;6.962;2023-01-25T09:20:02;28.50;;;18.35;;
49978;SDS011;35869;50.990;6.962;2023-01-25T09:25:03;30.73;;;17.37;;
49978;SDS011;35869;50.990;6.962;2023-01-25T09:30:04;27.20;;;17.03;;
49978;SDS011;35869;50.990;6.962;2023-01-25T09:35:05;27.85;;;16.80;;
49978;SDS011;35869;50.990;6.962;2023-01-25T09:40:09;27.93;;;17.77;;
49978;SDS011;35869;50.990;6.962;2023-01-25T09:45:36;27.90;;;16.40;;
49978;SDS011;35869;50.990;6.962;2023-01-25T09:50:38;29.60;;;18.33;;
49978;SDS011;35869;50.990;6.962;2023-01-25T09:55:55;29.35;;;17.67;;
49978;SDS011;35869;50.990;6.962;2023-01-25T10:01:04;29.90;;;17.08;;
49978;SDS011;35869;50.990;6.962;2023-01-25T10:06:11;35.55;;;18.50;;
49978;SDS011;35869;50.990;6.962;2023-01-25T10:11:25;24.52;;;17.30;;
49978;SDS011;35869;50.990;6.962;2023-01-25T10:16:40;26.65;;;16.55;;
49978;SDS011;35869;50.990;6.962;2023-01-25T10:21:48;30.73;;;18.13;;
49978;SDS011;35869;50.990;6.962;2023-01-25T10:26:56;24.33;;;16.83;;
49978;SDS011;35869;50.990;6.962;2023-01-25T10:32:09;30.85;;;19.10;;
49978;SDS011;35869;50.990;6.962;2023-01-25T10:37:19;37.83;;;20.05;;
49978;SDS011;35869;50.990;6.962;2023-01-25T10:42:23;29.77;;;18.77;;
49978;SDS011;35869;50.990;6.962;2023-01-25T10:47:30;29.45;;;18.75;;
49978;SDS011;35869;50.990;6.962;2023-01-25T10:52:34;29.08;;;17.48;;
49978;SDS011;35869;50.990;6.962;2023-01-25T10:57:34;31.58;;;17.55;;
49978;SDS011;35869;50.990;6.962;2023-01-25T11:02:39;29.80;;;18.05;;
49978;SDS011;35869;50.990;6.962;2023-01-25T11:07:39;29.13;;;18.00;;
49978;SDS011;35869;50.990;6.962;2023-01-25T11:12:40;31.30;;;19.25;;
49978;SDS011;35869;50.990;6.962;2023-01-25T11:17:40;31.75;;;19.13;;
49978;SDS011;35869;50.990;6.962;2023-01-25T11:22:55;32.70;;;17.77;;
49978;SDS011;35869;50.990;6.962;2023-01-25T11:28:08;35.50;;;20.38;;
49978;SDS011;35869;50.990;6.962;2023-01-25T11:33:11;35.00;;;20.15;;
49978;SDS011;35869;50.990;6.962;2023-01-25T11:38:12;33.95;;;20.40;;
49978;SDS011;35869;50.990;6.962;2023-01-25T11:48:49;38.40;;;22.35;;
49978;SDS011;35869;50.990;6.962;2023-01-25T12:10:06;39.17;;;22.92;;
49978;SDS011;35869;50.990;6.962;2023-01-25T12:15:38;40.97;;;23.73;;
49978;SDS011;35869;50.990;6.962;2023-01-25T12:32:06;39.63;;;22.97;;
49978;SDS011;35869;50.990;6.962;2023-01-25T12:37:17;39.35;;;22.88;;
49978;SDS011;35869;50.990;6.962;2023-01-25T12:42:24;38.22;;;23.35;;
49978;SDS011;35869;50.990;6.962;2023-01-25T12:47:32;36.47;;;21.52;;
49978;SDS011;35869;50.990;6.962;2023-01-25T12:52:40;36.72;;;22.17;;
49978;SDS011;35869;50.990;6.962;2023-01-25T13:03:02;40.47;;;24.23;;
49978;SDS011;35869;50.990;6.962;2023-01-25T13:08:09;44.45;;;25.58;;
49978;SDS011;35869;50.990;6.962;2023-01-25T13:13:34;37.87;;;23.73;;
49978;SDS011;35869;50.990;6.962;2023-01-25T13:18:34;38.15;;;22.35;;
49978;SDS011;35869;50.990;6.962;2023-01-25T13:23:37;42.22;;;23.98;;
49978;SDS011;35869;50.990;6.962;2023-01-25T13:28:41;40.05;;;23.35;;
49978;SDS011;35869;50.990;6.962;2023-01-25T13:33:42;38.70;;;23.60;;
49978;SDS011;35869;50.990;6.962;2023-01-25T13:38:43;37.83;;;23.15;;
49978;SDS011;35869;50.990;6.962;2023-01-25T13:43:44;44.67;;;26.58;;
49978;SDS011;35869;50.990;6.962;2023-01-25T13:48:48;35.88;;;25.00;;
49978;SDS011;35869;50.990;6.962;2023-01-25T13:53:55;45.50;;;25.55;;
49978;SDS011;35869;50.990;6.962;2023-01-25T13:58:57;43.05;;;26.10;;
49978;SDS011;35869;50.990;6.962;2023-01-25T14:03:59;42.00;;;24.60;;
49978;SDS011;35869;50.990;6.962;2023-01-25T14:09:04;45.92;;;25.35;;
49978;SDS011;35869;50.990;6.962;2023-01-25T14:19:20;50.10;;;27.95;;
49978;SDS011;35869;50.990;6.962;2023-01-25T14:24:21;44.67;;;24.63;;
49978;SDS011;35869;50.990;6.962;2023-01-25T14:29:21;46.55;;;26.13;;
49978;SDS011;35869;50.990;6.962;2023-01-25T14:34:22;45.22;;;25.23;;
49978;SDS011;35869;50.990;6.962;2023-01-25T14:39:26;47.67;;;25.95;;
49978;SDS011;35869;50.990;6.962;2023-01-25T14:44:28;38.00;;;22.23;;
49978;SDS011;35869;50.990;6.962;2023-01-25T14:49:28;52.97;;;27.43;;
49978;SDS011;35869;50.990;6.962;2023-01-25T14:54:29;49.87;;;26.00;;
49978;SDS011;35869;50.990;6.962;2023-01-25T14:59:44;46.63;;;26.50;;
49978;SDS011;35869;50.990;6.962;2023-01-25T15:04:55;47.65;;;26.10;;
49978;SDS011;35869;50.990;6.962;2023-01-25T15:10:01;40.75;;;25.65;;
49978;SDS011;35869;50.990;6.962;2023-01-25T15:15:16;45.15;;;25.70;;
49978;SDS011;35869;50.990;6.962;2023-01-25T15:25:47;41.33;;;23.17;;
49978;SDS011;35869;50.990;6.962;2023-01-25T15:30:51;37.08;;;22.92;;
49978;SDS011;35869;50.990;6.962;2023-01-25T15:35:52;44.67;;;24.73;;
49978;SDS011;35869;50.990;6.962;2023-01-25T15:40:53;46.40;;;26.77;;
49978;SDS011;35869;50.990;6.962;2023-01-25T15:45:54;40.50;;;24.77;;
49978;SDS011;35869;50.990;6.962;2023-01-25T15:50:55;38.60;;;23.70;;
49978;SDS011;35869;50.990;6.962;2023-01-25T15:55:59;47.27;;;24.93;;
49978;SDS011;35869;50.990;6.962;2023-01-25T16:01:02;41.90;;;22.67;;
49978;SDS011;35869;50.990;6.962;2023-01-25T16:06:03;41.40;;;23.70;;
49978;SDS011;35869;50.990;6.962;2023-01-25T16:11:13;40.03;;;24.33;;
49978;SDS011;35869;50.990;6.962;2023-01-25T16:16:15;40.28;;;25.50;;
49978;SDS011;35869;50.990;6.962;2023-01-25T16:21:17;45.70;;;25.98;;
49978;SDS011;35869;50.990;6.962;2023-01-25T16:26:19;50.60;;;26.70;;
49978;SDS011;35869;50.990;6.962;2023-01-25T16:31:24;49.95;;;25.95;;
49978;SDS011;35869;50.990;6.962;2023-01-25T16:36:25;40.20;;;24.45;;
49978;SDS011;35869;50.990;6.962;2023-01-25T16:41:25;42.13;;;24.38;;
49978;SDS011;35869;50.990;6.962;2023-01-25T16:46:25;42.15;;;25.65;;
49978;SDS011;35869;50.990;6.962;2023-01-25T16:51:26;45.55;;;24.50;;
49978;SDS011;35869;50.990;6.962;2023-01-25T17:01:28;39.85;;;23.33;;
49978;SDS011;35869;50.990;6.962;2023-01-25T17:06:30;45.35;;;24.90;;
49978;SDS011;35869;50.990;6.962;2023-01-25T17:11:34;45.65;;;24.63;;
49978;SDS011;35869;50.990;6.962;2023-01-25T17:16:35;47.80;;;24.65;;
49978;SDS011;35869;50.990;6.962;2023-01-25T17:21:36;46.40;;;25.15;;
49978;SDS011;35869;50.990;6.962;2023-01-25T17:26:36;42.45;;;26.02;;
49978;SDS011;35869;50.990;6.962;2023-01-25T17:31:36;43.03;;;22.08;;
49978;SDS011;35869;50.990;6.962;2023-01-25T17:36:36;48.43;;;24.33;;
49978;SDS011;35869;50.990;6.962;2023-01-25T17:41:37;43.65;;;23.55;;
49978;SDS011;35869;50.990;6.962;2023-01-25T17:46:37;44.03;;;25.27;;
49978;SDS011;35869;50.990;6.962;2023-01-25T17:51:37;45.17;;;23.97;;
49978;SDS011;35869;50.990;6.962;2023-01-25T17:56:38;46.93;;;25.33;;
49978;SDS011;35869;50.990;6.962;2023-01-25T18:01:39;42.67;;;22.47;;
49978;SDS011;35869;50.990;6.962;2023-01-25T18:06:39;42.20;;;23.30;;
49978;SDS011;35869;50.990;6.962;2023-01-25T18:11:39;46.47;;;24.05;;
49978;SDS011;35869;50.990;6.962;2023-01-25T18:16:41;49.05;;;26.52;;
49978;SDS011;35869;50.990;6.962;2023-01-25T18:21:41;50.45;;;27.55;;
49978;SDS011;35869;50.990;6.962;2023-01-25T18:26:42;46.63;;;25.30;;
49978;SDS011;35869;50.990;6.962;2023-01-25T18:31:42;51.13;;;24.92;;
49978;SDS011;35869;50.990;6.962;2023-01-25T18:36:42;40.15;;;20.00;;
49978;SDS011;35869;50.990;6.962;2023-01-25T18:41:42;45.70;;;19.80;;
49978;SDS011;35869;50.990;6.962;2023-01-25T18:46:43;29.98;;;16.85;;
49978;SDS011;35869;50.990;6.962;2023-01-25T18:51:43;36.50;;;17.75;;
49978;SDS011;35869;50.990;6.962;2023-01-25T18:56:44;31.25;;;16.48;;
49978;SDS011;35869;50.990;6.962;2023-01-25T19:01:44;33.92;;;17.20;;
49978;SDS011;35869;50.990;6.962;2023-01-25T19:06:44;32.65;;;17.33;;
49978;SDS011;35869;50.990;6.962;2023-01-25T19:11:44;32.65;;;16.58;;
49978;SDS011;35869;50.990;6.962;2023-01-25T19:16:45;29.95;;;16.48;;
49978;SDS011;35869;50.990;6.962;2023-01-25T19:21:45;34.13;;;16.13;;
49978;SDS011;35869;50.990;6.962;2023-01-25T19:26:46;30.70;;;15.00;;
49978;SDS011;35869;50.990;6.962;2023-01-25T19:31:46;25.58;;;14.35;;
49978;SDS011;35869;50.990;6.962;2023-01-25T19:36:46;29.45;;;16.75;;
49978;SDS011;35869;50.990;6.962;2023-01-25T19:41:46;27.90;;;14.18;;
49978;SDS011;35869;50.990;6.962;2023-01-25T19:46:47;26.23;;;14.07;;
49978;SDS011;35869;50.990;6.962;2023-01-25T19:51:47;24.63;;;14.30;;
49978;SDS011;35869;50.990;6.962;2023-01-25T19:56:47;29.15;;;16.70;;
49978;SDS011;35869;50.990;6.962;2023-01-25T20:01:48;28.05;;;15.82;;
49978;SDS011;35869;50.990;6.962;2023-01-25T20:06:49;33.45;;;16.33;;
49978;SDS011;35869;50.990;6.962;2023-01-25T20:11:50;33.72;;;17.70;;
49978;SDS011;35869;50.990;6.962;2023-01-25T20:16:50;26.83;;;14.23;;
49978;SDS011;35869;50.990;6.962;2023-01-25T20:21:50;23.13;;;13.55;;
49978;SDS011;35869;50.990;6.962;2023-01-25T20:26:50;19.60;;;10.93;;
49978;SDS011;35869;50.990;6.962;2023-01-25T20:31:51;20.52;;;11.40;;
49978;SDS011;35869;50.990;6.962;2023-01-25T20:36:51;16.25;;;10.23;;
49978;SDS011;35869;50.990;6.962;2023-01-25T20:41:51;18.73;;;11.10;;
49978;SDS011;35869;50.990;6.962;2023-01-25T20:46:51;20.27;;;10.27;;
49978;SDS011;35869;50.990;6.962;2023-01-25T20:51:52;25.33;;;12.17;;
49978;SDS011;35869;50.990;6.962;2023-01-25T20:56:52;24.30;;;11.55;;
49978;SDS011;35869;50.990;6.962;2023-01-25T21:01:52;20.35;;;11.15;;
49978;SDS011;35869;50.990;6.962;2023-01-25T21:06:52;20.88;;;11.95;;
49978;SDS011;35869;50.990;6.962;2023-01-25T21:11:53;20.93;;;12.73;;
49978;SDS011;35869;50.990;6.962;2023-01-25T21:16:53;23.70;;;14.27;;
49978;SDS011;35869;50.990;6.962;2023-01-25T21:21:53;32.42;;;16.25;;
49978;SDS011;35869;50.990;6.962;2023-01-25T21:26:53;24.60;;;14.13;;
49978;SDS011;35869;50.990;6.962;2023-01-25T21:31:53;27.30;;;15.13;;
49978;SDS011;35869;50.990;6.962;2023-01-25T21:36:54;22.27;;;13.02;;
49978;SDS011;35869;50.990;6.962;2023-01-25T21:41:54;30.38;;;13.85;;
49978;SDS011;35869;50.990;6.962;2023-01-25T21:46:54;24.17;;;12.55;;
49978;SDS011;35869;50.990;6.962;2023-01-25T21:51:56;22.55;;;13.88;;
49978;SDS011;35869;50.990;6.962;2023-01-25T21:56:58;31.67;;;15.55;;
49978;SDS011;35869;50.990;6.962;2023-01-25T22:01:59;28.30;;;14.75;;
49978;SDS011;35869;50.990;6.962;2023-01-25T22:06:59;27.35;;;14.55;;
49978;SDS011;35869;50.990;6.962;2023-01-25T22:11:59;33.28;;;17.83;;
49978;SDS011;35869;50.990;6.962;2023-01-25T22:16:59;32.25;;;18.45;;
49978;SDS011;35869;50.990;6.962;2023-01-25T22:22:00;34.72;;;19.08;;
49978;SDS011;35869;50.990;6.962;2023-01-25T22:27:19;36.17;;;19.45;;
49978;SDS011;35869;50.990;6.962;2023-01-25T22:32:29;46.08;;;20.80;;
49978;SDS011;35869;50.990;6.962;2023-01-25T22:37:29;37.42;;;21.00;;
49978;SDS011;35869;50.990;6.962;2023-01-25T22:42:29;39.38;;;22.13;;
49978;SDS011;35869;50.990;6.962;2023-01-25T22:47:29;46.00;;;22.65;;
49978;SDS011;35869;50.990;6.962;2023-01-25T22:52:29;48.03;;;24.27;;
49978;SDS011;35869;50.990;6.962;2023-01-25T22:57:30;47.35;;;22.65;;
49978;SDS011;35869;50.990;6.962;2023-01-25T23:02:30;57.78;;;27.13;;
49978;SDS011;35869;50.990;6.962;2023-01-25T23:07:30;54.83;;;27.05;;
49978;SDS011;35869;50.990;6.962;2023-01-25T23:12:30;54.70;;;24.48;;
49978;SDS011;35869;50.990;6.962;2023-01-25T23:17:31;58.35;;;28.88;;
49978;SDS011;35869;50.990;6.962;2023-01-25T23:22:32;59.03;;;30.02;;
49978;SDS011;35869;50.990;6.962;2023-01-25T23:32:45;67.43;;;30.50;;
49978;SDS011;35869;50.990;6.962;2023-01-25T23:37:45;60.08;;;29.38;;
49978;SDS011;35869;50.990;6.962;2023-01-25T23:42:46;69.45;;;35.00;;
49978;SDS011;35869;50.990;6.962;2023-01-25T23:47:46;77.22;;;34.15;;
49978;SDS011;35869;50.990;6.962;2023-01-25T23:52:46;71.00;;;35.58;;
49978;SDS011;35869;50.990;6.962;2023-01-25T23:57:46;76.43;;;35.67;;
